Mancos, CO (81328)

10:13 PM MST on December 22, 2014 (GMT -0700)
East Canyon | Change Station
CLOSE
Current Station
Personal Weather Station
Location: Mancos, CO
Elevation: 7550 ft
Nearby Weather Stations

Elev 7550 ft 37.30 °N, 108.23 °W | Updated 4 minutes ago

Overcast
Overcast
25.1 °F
Feels Like 25 °F
N
3.0
Wind Variable Wind from NNE
Gusts 3.0 mph

Today
High -- | Low -- °F
--% Chance of Precip.
Yesterday
High -- | Low -- °F
Precip. -- in
7:24 AM 4:59 PM
New Moon, 2% visible
Pressure 29.91 in
Visibility 10.0 miles
Clouds Few 3500 ft
Overcast 4600 ft
Windchill 25 °F
Dew Point 10 °F
Humidity 52%
Rainfall 0.27 in
Snow Depth Not available.
UV 0 out of 12
Pollen 2.90 out of 12
Air Quality Not available.
Flu Activity Not available.
METAR KCEZ 230453Z AUTO 36007KT 10SM FEW035 OVC046 01/M03 A2993 RMK AO2 SNE03B36E47 SLP126 P0000 T00061028

More Conditions Fewer Conditions

Pressure 29.91 in
Visibility 10.0 miles
Clouds Few 3500 ft
Overcast 4600 ft
Windchill 25 °F
Dew Point 10 °F
Humidity 52%
Rainfall 0.27 in
Snow Depth Not available.
UV 0 out of 12
Pollen 2.90 out of 12
Air Quality Not available.
Flu Activity Not available.
METAR KCEZ 230453Z AUTO 36007KT 10SM FEW035 OVC046 01/M03 A2993 RMK AO2 SNE03B36E47 SLP126 P0000 T00061028

More Conditions Fewer Conditions

10-Day Weather Forecast

Almanac

Astronomy

Dec. 22, 2014 Rise Set
Actual Time
Civil Twilight
Nautical Twilight
Astronomical Twilight
Moon
Length of Visible Light
Length of Day
Tomorrow will be .
, % of the Moon is Illuminated

Today's Extremes

State Highs State Lows

Community

WunderPhotos

Upload Photos

1,779,781 photos uploaded!

WunderBlogs® & News

Nearby

Air Quality

  Air Quality AQ Index Pollutant
Not available.

Snow Depth

Station Depth Elevation

Earthquake Activity

City Distance Mag. Time & Date
Minimum magnitude displayed is 2.5.

Coastal Water Temperatures

Place Temperature

Nearby Weather Stations